sensor_id;sensor_type;location;lat;lon;timestamp;pressure;altitude;pressure_sealevel;temperature;humidity
63652;BME280;49801;37.536;-122.304;2022-09-09T00:00:01;100250.00;;;38.83;16.76
63652;BME280;49801;37.536;-122.304;2022-09-09T00:00:28;100254.91;;;38.86;16.44
63652;BME280;49801;37.536;-122.304;2022-09-09T00:02:01;100257.72;;;38.86;17.35
63652;BME280;49801;37.536;-122.304;2022-09-09T00:02:29;100252.50;;;38.88;16.79
63652;BME280;49801;37.536;-122.304;2022-09-09T00:03:27;100251.75;;;38.91;16.21
63652;BME280;49801;37.536;-122.304;2022-09-09T00:03:59;100252.19;;;38.93;17.41
63652;BME280;49801;37.536;-122.304;2022-09-09T00:04:29;100245.34;;;38.94;17.12
63652;BME280;49801;37.536;-122.304;2022-09-09T00:05:00;100249.00;;;38.95;17.59
63652;BME280;49801;37.536;-122.304;2022-09-09T00:06:04;100251.06;;;38.98;17.71
63652;BME280;49801;37.536;-122.304;2022-09-09T00:06:42;100251.88;;;38.98;17.52
63652;BME280;49801;37.536;-122.304;2022-09-09T00:07:18;100246.97;;;38.95;17.50
63652;BME280;49801;37.536;-122.304;2022-09-09T00:07:49;100246.59;;;38.97;17.59
63652;BME280;49801;37.536;-122.304;2022-09-09T00:08:20;100249.41;;;38.97;17.84
63652;BME280;49801;37.536;-122.304;2022-09-09T00:09:24;100248.63;;;38.96;17.79
63652;BME280;49801;37.536;-122.304;2022-09-09T00:10:15;100246.97;;;38.95;18.20
63652;BME280;49801;37.536;-122.304;2022-09-09T00:10:38;100249.03;;;38.98;17.76
63652;BME280;49801;37.536;-122.304;2022-09-09T00:11:07;100245.03;;;38.99;18.26
63652;BME280;49801;37.536;-122.304;2022-09-09T00:12:21;100246.66;;;39.00;18.19
63652;BME280;49801;37.536;-122.304;2022-09-09T00:14:59;100255.22;;;39.04;18.18
63652;BME280;49801;37.536;-122.304;2022-09-09T00:16:34;100251.34;;;38.27;19.63
63652;BME280;49801;37.536;-122.304;2022-09-09T00:17:03;100248.66;;;38.15;20.11
63652;BME280;49801;37.536;-122.304;2022-09-09T00:17:42;100256.47;;;38.02;19.74
63652;BME280;49801;37.536;-122.304;2022-09-09T00:18:28;100246.78;;;38.03;20.06
63652;BME280;49801;37.536;-122.304;2022-09-09T00:19:27;100252.22;;;37.92;19.65
63652;BME280;49801;37.536;-122.304;2022-09-09T00:20:47;100246.47;;;37.88;20.51
63652;BME280;49801;37.536;-122.304;2022-09-09T00:21:14;100243.22;;;37.86;20.11
63652;BME280;49801;37.536;-122.304;2022-09-09T00:22:28;100243.94;;;37.83;19.62
63652;BME280;49801;37.536;-122.304;2022-09-09T00:23:38;100248.78;;;37.83;20.04
63652;BME280;49801;37.536;-122.304;2022-09-09T00:23:47;100246.91;;;37.71;20.45
63652;BME280;49801;37.536;-122.304;2022-09-09T00:24:54;100240.38;;;37.67;19.72
63652;BME280;49801;37.536;-122.304;2022-09-09T00:25:27;100242.38;;;37.66;21.13
63652;BME280;49801;37.536;-122.304;2022-09-09T00:27:08;100241.19;;;37.67;21.30
63652;BME280;49801;37.536;-122.304;2022-09-09T00:27:41;100242.00;;;37.68;20.67
63652;BME280;49801;37.536;-122.304;2022-09-09T00:28:17;100239.63;;;37.70;20.55
63652;BME280;49801;37.536;-122.304;2022-09-09T00:28:52;100237.22;;;37.72;20.71
63652;BME280;49801;37.536;-122.304;2022-09-09T00:29:27;100244.97;;;37.75;20.37
63652;BME280;49801;37.536;-122.304;2022-09-09T00:30:17;100246.09;;;37.70;20.92
63652;BME280;49801;37.536;-122.304;2022-09-09T00:30:46;100243.19;;;37.67;20.07
63652;BME280;49801;37.536;-122.304;2022-09-09T00:31:19;100242.72;;;37.65;17.19
63652;BME280;49801;37.536;-122.304;2022-09-09T00:31:47;100242.00;;;37.68;16.73
63652;BME280;49801;37.536;-122.304;2022-09-09T00:32:14;100245.25;;;37.70;14.77
63652;BME280;49801;37.536;-122.304;2022-09-09T00:32:41;100233.22;;;37.73;14.70
63652;BME280;49801;37.536;-122.304;2022-09-09T00:33:11;100247.00;;;37.75;14.15
63652;BME280;49801;37.536;-122.304;2022-09-09T00:33:40;100242.22;;;37.79;14.29
63652;BME280;49801;37.536;-122.304;2022-09-09T00:34:41;100239.03;;;37.80;13.70
63652;BME280;49801;37.536;-122.304;2022-09-09T00:35:02;100240.69;;;37.81;14.10
63652;BME280;49801;37.536;-122.304;2022-09-09T00:35:32;100237.50;;;37.83;13.97
63652;BME280;49801;37.536;-122.304;2022-09-09T00:35:59;100241.13;;;37.83;14.00
63652;BME280;49801;37.536;-122.304;2022-09-09T00:36:26;100239.94;;;37.84;13.66
63652;BME280;49801;37.536;-122.304;2022-09-09T00:36:54;100239.94;;;37.84;13.58
63652;BME280;49801;37.536;-122.304;2022-09-09T00:37:22;100241.56;;;37.85;13.41
63652;BME280;49801;37.536;-122.304;2022-09-09T00:37:51;100240.38;;;37.86;13.64
63652;BME280;49801;37.536;-122.304;2022-09-09T00:38:52;100240.25;;;37.79;14.08
63652;BME280;49801;37.536;-122.304;2022-09-09T00:39:59;100243.81;;;37.76;14.28
63652;BME280;49801;37.536;-122.304;2022-09-09T00:40:34;100243.34;;;37.74;14.54
63652;BME280;49801;37.536;-122.304;2022-09-09T00:42:15;100236.78;;;37.70;14.05
63652;BME280;49801;37.536;-122.304;2022-09-09T00:42:41;100238.81;;;37.69;13.93
63652;BME280;49801;37.536;-122.304;2022-09-09T00:43:37;100239.97;;;37.68;14.24
63652;BME280;49801;37.536;-122.304;2022-09-09T00:44:13;100233.16;;;37.69;13.78
63652;BME280;49801;37.536;-122.304;2022-09-09T00:46:41;100238.72;;;37.66;13.94
63652;BME280;49801;37.536;-122.304;2022-09-09T00:47:46;100236.59;;;37.63;14.41
63652;BME280;49801;37.536;-122.304;2022-09-09T00:48:15;100233.78;;;37.63;14.17
63652;BME280;49801;37.536;-122.304;2022-09-09T00:50:30;100227.53;;;37.53;14.39
63652;BME280;49801;37.536;-122.304;2022-09-09T00:51:02;100232.81;;;37.55;14.24
63652;BME280;49801;37.536;-122.304;2022-09-09T00:51:40;100227.09;;;37.51;14.55
63652;BME280;49801;37.536;-122.304;2022-09-09T00:52:23;100227.91;;;37.52;14.31
63652;BME280;49801;37.536;-122.304;2022-09-09T00:54:33;100230.19;;;37.46;14.49
63652;BME280;49801;37.536;-122.304;2022-09-09T00:56:17;100227.66;;;37.41;14.49
63652;BME280;49801;37.536;-122.304;2022-09-09T00:56:53;100228.84;;;37.40;14.31
63652;BME280;49801;37.536;-122.304;2022-09-09T00:57:29;100230.00;;;37.39;14.95
63652;BME280;49801;37.536;-122.304;2022-09-09T00:57:56;100224.38;;;37.39;14.89
63652;BME280;49801;37.536;-122.304;2022-09-09T00:58:22;100226.75;;;37.37;14.87
63652;BME280;49801;37.536;-122.304;2022-09-09T00:58:51;100227.47;;;37.34;14.48
63652;BME280;49801;37.536;-122.304;2022-09-09T00:59:37;100230.28;;;37.34;14.94
63652;BME280;49801;37.536;-122.304;2022-09-09T01:00:51;100228.22;;;37.31;14.54
63652;BME280;49801;37.536;-122.304;2022-09-09T01:01:18;100227.38;;;37.30;14.35
63652;BME280;49801;37.536;-122.304;2022-09-09T01:01:43;100233.41;;;37.29;14.78
63652;BME280;49801;37.536;-122.304;2022-09-09T01:02:14;100227.31;;;37.27;14.50
63652;BME280;49801;37.536;-122.304;2022-09-09T01:03:37;100223.97;;;37.21;14.76
63652;BME280;49801;37.536;-122.304;2022-09-09T01:04:04;100221.50;;;37.20;14.56
63652;BME280;49801;37.536;-122.304;2022-09-09T01:04:35;100231.03;;;37.15;15.16
63652;BME280;49801;37.536;-122.304;2022-09-09T01:05:05;100216.09;;;37.14;14.99
63652;BME280;49801;37.536;-122.304;2022-09-09T01:06:11;100222.84;;;37.10;15.19
63652;BME280;49801;37.536;-122.304;2022-09-09T01:06:37;100221.94;;;37.06;14.56
63652;BME280;49801;37.536;-122.304;2022-09-09T01:07:16;100227.50;;;37.02;14.82
63652;BME280;49801;37.536;-122.304;2022-09-09T01:07:43;100217.75;;;37.00;14.97
63652;BME280;49801;37.536;-122.304;2022-09-09T01:09:52;100225.66;;;36.94;14.70
63652;BME280;49801;37.536;-122.304;2022-09-09T01:10:29;100221.19;;;36.93;14.95
63652;BME280;49801;37.536;-122.304;2022-09-09T01:11:00;100231.31;;;36.94;14.86
63652;BME280;49801;37.536;-122.304;2022-09-09T01:12:32;100233.13;;;36.70;20.15
63652;BME280;49801;37.536;-122.304;2022-09-09T01:13:00;100231.28;;;36.62;20.39
63652;BME280;49801;37.536;-122.304;2022-09-09T01:13:29;100227.91;;;36.56;20.70
63652;BME280;49801;37.536;-122.304;2022-09-09T01:14:01;100239.78;;;36.50;20.97
63652;BME280;49801;37.536;-122.304;2022-09-09T01:15:03;100230.50;;;36.33;21.89
63652;BME280;49801;37.536;-122.304;2022-09-09T01:15:33;100235.00;;;36.22;22.17
63652;BME280;49801;37.536;-122.304;2022-09-09T01:16:01;100229.13;;;36.15;22.72
63652;BME280;49801;37.536;-122.304;2022-09-09T01:16:27;100230.56;;;36.09;22.56
63652;BME280;49801;37.536;-122.304;2022-09-09T01:16:55;100237.66;;;36.02;22.55
63652;BME280;49801;37.536;-122.304;2022-09-09T01:17:30;100225.22;;;35.91;22.70
63652;BME280;49801;37.536;-122.304;2022-09-09T01:17:59;100224.38;;;35.75;23.32
63652;BME280;49801;37.536;-122.304;2022-09-09T01:18:27;100230.09;;;35.66;23.37
63652;BME280;49801;37.536;-122.304;2022-09-09T01:18:54;100227.06;;;35.46;23.89
63652;BME280;49801;37.536;-122.304;2022-09-09T01:19:28;100229.31;;;35.41;23.97
63652;BME280;49801;37.536;-122.304;2022-09-09T01:21:08;100224.63;;;34.96;24.43
63652;BME280;49801;37.536;-122.304;2022-09-09T01:21:40;100231.97;;;34.75;24.93
63652;BME280;49801;37.536;-122.304;2022-09-09T01:23:44;100222.28;;;34.52;26.11
63652;BME280;49801;37.536;-122.304;2022-09-09T01:24:22;100232.56;;;34.48;26.05
63652;BME280;49801;37.536;-122.304;2022-09-09T01:25:05;100231.09;;;34.29;26.29
63652;BME280;49801;37.536;-122.304;2022-09-09T01:26:15;100219.34;;;33.94;27.01
63652;BME280;49801;37.536;-122.304;2022-09-09T01:26:42;100226.53;;;33.82;27.39
63652;BME280;49801;37.536;-122.304;2022-09-09T01:27:08;100225.22;;;33.80;27.17
63652;BME280;49801;37.536;-122.304;2022-09-09T01:27:34;100219.47;;;33.76;27.10
63652;BME280;49801;37.536;-122.304;2022-09-09T01:28:02;100223.56;;;33.58;28.00
63652;BME280;49801;37.536;-122.304;2022-09-09T01:28:29;100226.97;;;33.42;27.85
63652;BME280;49801;37.536;-122.304;2022-09-09T01:28:55;100228.16;;;33.33;27.38
63652;BME280;49801;37.536;-122.304;2022-09-09T01:29:21;100222.63;;;33.24;27.32
63652;BME280;49801;37.536;-122.304;2022-09-09T01:29:48;100234.03;;;33.19;27.63
63652;BME280;49801;37.536;-122.304;2022-09-09T01:30:15;100229.72;;;33.13;27.81
63652;BME280;49801;37.536;-122.304;2022-09-09T01:30:41;100225.00;;;33.04;27.88
63652;BME280;49801;37.536;-122.304;2022-09-09T01:31:07;100224.53;;;32.94;28.23
63652;BME280;49801;37.536;-122.304;2022-09-09T01:31:39;100222.56;;;32.94;27.58
63652;BME280;49801;37.536;-122.304;2022-09-09T01:32:55;100221.66;;;32.73;28.55
63652;BME280;49801;37.536;-122.304;2022-09-09T01:33:23;100223.16;;;32.70;28.50
63652;BME280;49801;37.536;-122.304;2022-09-09T01:33:49;100228.91;;;32.74;28.10
63652;BME280;49801;37.536;-122.304;2022-09-09T01:34:15;100228.91;;;32.74;28.01
63652;BME280;49801;37.536;-122.304;2022-09-09T01:34:41;100225.78;;;32.66;28.38
63652;BME280;49801;37.536;-122.304;2022-09-09T01:35:12;100216.41;;;32.62;28.41
63652;BME280;49801;37.536;-122.304;2022-09-09T01:35:48;100225.63;;;32.54;28.68
63652;BME280;49801;37.536;-122.304;2022-09-09T01:36:29;100227.47;;;32.50;28.67
63652;BME280;49801;37.536;-122.304;2022-09-09T01:37:08;100199.00;;;32.13;29.17
63652;BME280;49801;37.536;-122.304;2022-09-09T01:37:35;100227.69;;;32.27;28.98
63652;BME280;49801;37.536;-122.304;2022-09-09T01:38:01;100225.69;;;32.19;29.21
63652;BME280;49801;37.536;-122.304;2022-09-09T01:38:28;100229.16;;;32.16;29.07
63652;BME280;49801;37.536;-122.304;2022-09-09T01:38:54;100234.44;;;32.09;29.40
63652;BME280;49801;37.536;-122.304;2022-09-09T01:39:20;100228.97;;;32.04;29.28
63652;BME280;49801;37.536;-122.304;2022-09-09T01:39:46;100218.59;;;32.04;29.21
63652;BME280;49801;37.536;-122.304;2022-09-09T01:40:13;100226.03;;;32.09;29.16
63652;BME280;49801;37.536;-122.304;2022-09-09T01:40:39;100220.13;;;32.10;29.38
63652;BME280;49801;37.536;-122.304;2022-09-09T01:41:05;100229.97;;;32.08;29.49
63652;BME280;49801;37.536;-122.304;2022-09-09T01:41:30;100227.19;;;32.08;29.30
63652;BME280;49801;37.536;-122.304;2022-09-09T01:41:56;100226.38;;;32.07;29.28
63652;BME280;49801;37.536;-122.304;2022-09-09T01:42:22;100236.03;;;32.01;29.52
63652;BME280;49801;37.536;-122.304;2022-09-09T01:42:48;100228.16;;;31.94;29.55
63652;BME280;49801;37.536;-122.304;2022-09-09T01:43:14;100229.78;;;31.87;29.95
63652;BME280;49801;37.536;-122.304;2022-09-09T01:43:39;100230.63;;;31.87;29.70
63652;BME280;49801;37.536;-122.304;2022-09-09T01:44:06;100227.00;;;31.78;29.86
63652;BME280;49801;37.536;-122.304;2022-09-09T01:44:33;100233.25;;;31.75;30.21
63652;BME280;49801;37.536;-122.304;2022-09-09T01:44:59;100226.66;;;31.71;29.85
63652;BME280;49801;37.536;-122.304;2022-09-09T01:45:25;100234.25;;;31.70;30.18
63652;BME280;49801;37.536;-122.304;2022-09-09T01:45:53;100218.44;;;31.66;30.14
63652;BME280;49801;37.536;-122.304;2022-09-09T01:46:19;100231.94;;;31.64;29.99
63652;BME280;49801;37.536;-122.304;2022-09-09T01:46:46;100228.81;;;31.65;30.26
63652;BME280;49801;37.536;-122.304;2022-09-09T01:47:13;100227.63;;;31.57;30.37
63652;BME280;49801;37.536;-122.304;2022-09-09T01:47:40;100201.03;;;31.29;30.47
63652;BME280;49801;37.536;-122.304;2022-09-09T01:48:06;100234.44;;;31.34;30.88
63652;BME280;49801;37.536;-122.304;2022-09-09T01:48:33;100225.41;;;31.28;30.68
63652;BME280;49801;37.536;-122.304;2022-09-09T01:48:59;100229.69;;;31.26;30.76
63652;BME280;49801;37.536;-122.304;2022-09-09T01:49:27;100228.03;;;31.25;30.74
63652;BME280;49801;37.536;-122.304;2022-09-09T01:49:53;100224.72;;;31.22;30.72
63652;BME280;49801;37.536;-122.304;2022-09-09T01:50:19;100225.88;;;31.21;30.68
63652;BME280;49801;37.536;-122.304;2022-09-09T01:50:45;100232.25;;;31.13;31.03
63652;BME280;49801;37.536;-122.304;2022-09-09T01:51:10;100230.44;;;31.09;31.13
63652;BME280;49801;37.536;-122.304;2022-09-09T01:51:36;100230.91;;;31.02;31.26
63652;BME280;49801;37.536;-122.304;2022-09-09T01:52:03;100227.09;;;30.98;31.47
63652;BME280;49801;37.536;-122.304;2022-09-09T01:52:30;100227.03;;;30.89;31.66
63652;BME280;49801;37.536;-122.304;2022-09-09T01:52:57;100231.81;;;30.89;31.67
63652;BME280;49801;37.536;-122.304;2022-09-09T01:53:23;100229.50;;;30.91;31.49
63652;BME280;49801;37.536;-122.304;2022-09-09T01:53:49;100228.03;;;30.84;31.73
63652;BME280;49801;37.536;-122.304;2022-09-09T01:54:15;100231.31;;;30.87;31.51
63652;BME280;49801;37.536;-122.304;2022-09-09T01:54:41;100230.28;;;30.82;31.77
63652;BME280;49801;37.536;-122.304;2022-09-09T01:55:07;100230.94;;;30.79;31.87
63652;BME280;49801;37.536;-122.304;2022-09-09T01:55:36;100234.25;;;30.81;31.71
63652;BME280;49801;37.536;-122.304;2022-09-09T01:56:39;100221.50;;;30.66;32.12
63652;BME280;49801;37.536;-122.304;2022-09-09T01:58:13;100222.09;;;30.32;33.02
63652;BME280;49801;37.536;-122.304;2022-09-09T02:00:09;100223.75;;;30.10;33.44
63652;BME280;49801;37.536;-122.304;2022-09-09T02:00:37;100218.44;;;30.00;33.70
63652;BME280;49801;37.536;-122.304;2022-09-09T02:01:16;100222.66;;;29.98;33.73
63652;BME280;49801;37.536;-122.304;2022-09-09T02:03:16;100214.16;;;30.03;33.56
63652;BME280;49801;37.536;-122.304;2022-09-09T02:03:46;100213.97;;;29.99;33.96
63652;BME280;49801;37.536;-122.304;2022-09-09T02:04:20;100218.56;;;29.95;33.91
63652;BME280;49801;37.536;-122.304;2022-09-09T02:04:49;100221.84;;;29.97;33.55
63652;BME280;49801;37.536;-122.304;2022-09-09T02:05:19;100218.56;;;29.95;34.03
63652;BME280;49801;37.536;-122.304;2022-09-09T02:06:04;100220.81;;;29.93;34.08
63652;BME280;49801;37.536;-122.304;2022-09-09T02:06:34;100217.66;;;29.72;34.69
63652;BME280;49801;37.536;-122.304;2022-09-09T02:07:00;100221.72;;;29.66;34.71
63652;BME280;49801;37.536;-122.304;2022-09-09T02:08:08;100216.31;;;29.69;34.59
63652;BME280;49801;37.536;-122.304;2022-09-09T02:09:00;100222.13;;;29.59;34.71
63652;BME280;49801;37.536;-122.304;2022-09-09T02:09:29;100223.19;;;29.49;35.08
63652;BME280;49801;37.536;-122.304;2022-09-09T02:11:01;100211.03;;;29.31;35.15
63652;BME280;49801;37.536;-122.304;2022-09-09T02:11:30;100212.16;;;29.30;35.21
63652;BME280;49801;37.536;-122.304;2022-09-09T02:12:01;100213.94;;;29.26;35.32
63652;BME280;49801;37.536;-122.304;2022-09-09T02:12:32;100224.63;;;29.19;35.31
63652;BME280;49801;37.536;-122.304;2022-09-09T02:13:09;100216.34;;;29.14;35.73
63652;BME280;49801;37.536;-122.304;2022-09-09T02:13:36;100223.19;;;29.08;35.61
63652;BME280;49801;37.536;-122.304;2022-09-09T02:14:05;100215.84;;;28.98;35.63
63652;BME280;49801;37.536;-122.304;2022-09-09T02:14:35;100217.41;;;28.90;35.92
63652;BME280;49801;37.536;-122.304;2022-09-09T02:15:03;100222.56;;;28.83;36.03
63652;BME280;49801;37.536;-122.304;2022-09-09T02:16:04;100217.00;;;28.83;36.00
63652;BME280;49801;37.536;-122.304;2022-09-09T02:16:55;100216.53;;;28.76;36.66
63652;BME280;49801;37.536;-122.304;2022-09-09T02:17:25;100218.59;;;28.70;36.11
63652;BME280;49801;37.536;-122.304;2022-09-09T02:17:52;100218.41;;;28.67;36.48
63652;BME280;49801;37.536;-122.304;2022-09-09T02:18:26;100222.69;;;28.59;36.59
63652;BME280;49801;37.536;-122.304;2022-09-09T02:19:06;100215.44;;;28.44;36.71
63652;BME280;49801;37.536;-122.304;2022-09-09T02:19:36;100211.06;;;28.38;36.61
63652;BME280;49801;37.536;-122.304;2022-09-09T02:20:05;100216.22;;;28.31;37.23
63652;BME280;49801;37.536;-122.304;2022-09-09T02:20:32;100220.13;;;28.30;37.23
63652;BME280;49801;37.536;-122.304;2022-09-09T02:20:58;100217.97;;;28.27;37.02
63652;BME280;49801;37.536;-122.304;2022-09-09T02:21:24;100218.88;;;28.22;37.40
63652;BME280;49801;37.536;-122.304;2022-09-09T02:21:54;100220.63;;;28.18;37.14
63652;BME280;49801;37.536;-122.304;2022-09-09T02:22:21;100215.34;;;28.16;37.11
63652;BME280;49801;37.536;-122.304;2022-09-09T02:22:50;100217.59;;;28.14;37.24
63652;BME280;49801;37.536;-122.304;2022-09-09T02:23:17;100213.84;;;28.05;37.35
63652;BME280;49801;37.536;-122.304;2022-09-09T02:23:43;100220.25;;;28.05;37.13
63652;BME280;49801;37.536;-122.304;2022-09-09T02:24:13;100218.81;;;28.08;37.34
63652;BME280;49801;37.536;-122.304;2022-09-09T02:24:41;100228.28;;;28.07;37.22
63652;BME280;49801;37.536;-122.304;2022-09-09T02:25:08;100217.53;;;28.00;37.23
63652;BME280;49801;37.536;-122.304;2022-09-09T02:25:35;100220.66;;;27.99;37.27
63652;BME280;49801;37.536;-122.304;2022-09-09T02:26:02;100222.06;;;27.96;37.47
63652;BME280;49801;37.536;-122.304;2022-09-09T02:26:29;100225.16;;;27.95;37.51
63652;BME280;49801;37.536;-122.304;2022-09-09T02:26:55;100223.50;;;27.94;37.46
63652;BME280;49801;37.536;-122.304;2022-09-09T02:27:22;100224.06;;;27.91;37.64
63652;BME280;49801;37.536;-122.304;2022-09-09T02:27:49;100221.84;;;27.93;37.52
63652;BME280;49801;37.536;-122.304;2022-09-09T02:28:16;100220.78;;;27.88;37.90
63652;BME280;49801;37.536;-122.304;2022-09-09T02:28:42;100220.78;;;27.88;37.89
63652;BME280;49801;37.536;-122.304;2022-09-09T02:29:14;100225.03;;;27.81;37.86
63652;BME280;49801;37.536;-122.304;2022-09-09T02:29:41;100222.41;;;27.71;38.13
63652;BME280;49801;37.536;-122.304;2022-09-09T02:30:07;100223.84;;;27.68;37.84
63652;BME280;49801;37.536;-122.304;2022-09-09T02:30:33;100225.56;;;27.64;38.07
63652;BME280;49801;37.536;-122.304;2022-09-09T02:31:00;100221.66;;;27.65;38.33
63652;BME280;49801;37.536;-122.304;2022-09-09T02:31:27;100225.56;;;27.64;38.17
63652;BME280;49801;37.536;-122.304;2022-09-09T02:31:53;100219.19;;;27.63;38.24
63652;BME280;49801;37.536;-122.304;2022-09-09T02:32:22;100224.75;;;27.63;38.02
63652;BME280;49801;37.536;-122.304;2022-09-09T02:32:49;100222.84;;;27.59;38.47
63652;BME280;49801;37.536;-122.304;2022-09-09T02:33:16;100231.25;;;27.54;38.47
63652;BME280;49801;37.536;-122.304;2022-09-09T02:33:45;100238.25;;;27.51;38.68
63652;BME280;49801;37.536;-122.304;2022-09-09T02:34:12;100228.56;;;27.48;38.52
63652;BME280;49801;37.536;-122.304;2022-09-09T02:34:40;100233.06;;;27.44;38.69
63652;BME280;49801;37.536;-122.304;2022-09-09T02:35:09;100230.34;;;27.39;38.73
63652;BME280;49801;37.536;-122.304;2022-09-09T02:35:36;100233.50;;;27.33;39.32
63652;BME280;49801;37.536;-122.304;2022-09-09T02:36:03;100230.94;;;27.36;38.74
63652;BME280;49801;37.536;-122.304;2022-09-09T02:36:32;100236.50;;;27.36;38.95
63652;BME280;49801;37.536;-122.304;2022-09-09T02:36:59;100238.75;;;27.34;39.09
63652;BME280;49801;37.536;-122.304;2022-09-09T02:37:27;100240.47;;;27.30;39.21
63652;BME280;49801;37.536;-122.304;2022-09-09T02:37:56;100234.38;;;27.28;39.04
63652;BME280;49801;37.536;-122.304;2022-09-09T02:38:25;100235.25;;;27.23;38.98
63652;BME280;49801;37.536;-122.304;2022-09-09T02:38:54;100227.75;;;27.24;39.20
63652;BME280;49801;37.536;-122.304;2022-09-09T02:39:21;100191.16;;;26.92;39.43
63652;BME280;49801;37.536;-122.304;2022-09-09T02:39:46;100230.00;;;27.22;39.15
63652;BME280;49801;37.536;-122.304;2022-09-09T02:40:13;100234.41;;;27.23;39.07
63652;BME280;49801;37.536;-122.304;2022-09-09T02:40:40;100236.13;;;27.19;39.09
63652;BME280;49801;37.536;-122.304;2022-09-09T02:41:06;100235.66;;;27.11;39.24
63652;BME280;49801;37.536;-122.304;2022-09-09T02:41:33;100232.94;;;27.06;39.63
63652;BME280;49801;37.536;-122.304;2022-09-09T02:41:59;100233.53;;;27.03;39.49
63652;BME280;49801;37.536;-122.304;2022-09-09T02:42:25;100242.41;;;27.05;39.20
63652;BME280;49801;37.536;-122.304;2022-09-09T02:42:50;100239.09;;;27.03;39.47
63652;BME280;49801;37.536;-122.304;2022-09-09T02:43:16;100236.91;;;27.00;39.23
63652;BME280;49801;37.536;-122.304;2022-09-09T02:43:42;100239.44;;;26.97;39.40
63652;BME280;49801;37.536;-122.304;2022-09-09T02:44:09;100238.63;;;26.96;39.70
63652;BME280;49801;37.536;-122.304;2022-09-09T02:44:36;100203.31;;;26.72;39.77
63652;BME280;49801;37.536;-122.304;2022-09-09T02:45:02;100238.09;;;26.94;39.41
63652;BME280;49801;37.536;-122.304;2022-09-09T02:46:34;100239.44;;;26.97;39.60
63652;BME280;49801;37.536;-122.304;2022-09-09T02:47:29;100243.19;;;26.82;40.07
63652;BME280;49801;37.536;-122.304;2022-09-09T02:48:59;100244.63;;;26.79;39.73
63652;BME280;49801;37.536;-122.304;2022-09-09T02:51:15;100250.63;;;26.57;40.36
63652;BME280;49801;37.536;-122.304;2022-09-09T02:52:15;100243.47;;;26.51;40.57
63652;BME280;49801;37.536;-122.304;2022-09-09T02:52:50;100249.63;;;26.48;40.58
63652;BME280;49801;37.536;-122.304;2022-09-09T02:53:19;100253.50;;;26.47;40.67
63652;BME280;49801;37.536;-122.304;2022-09-09T02:54:31;100257.44;;;26.41;40.88
63652;BME280;49801;37.536;-122.304;2022-09-09T02:54:59;100250.25;;;26.39;41.01
63652;BME280;49801;37.536;-122.304;2022-09-09T02:55:35;100248.63;;;26.33;41.19
63652;BME280;49801;37.536;-122.304;2022-09-09T02:56:08;100251.91;;;26.35;40.83
63652;BME280;49801;37.536;-122.304;2022-09-09T02:56:38;100250.81;;;26.36;40.94
63652;BME280;49801;37.536;-122.304;2022-09-09T02:57:08;100257.47;;;26.35;40.74
63652;BME280;49801;37.536;-122.304;2022-09-09T02:57:36;100253.63;;;26.31;41.04
63652;BME280;49801;37.536;-122.304;2022-09-09T02:58:03;100249.22;;;26.30;41.27
63652;BME280;49801;37.536;-122.304;2022-09-09T02:58:31;100248.13;;;26.26;41.18
63652;BME280;49801;37.536;-122.304;2022-09-09T02:58:57;100249.78;;;26.27;41.03
63652;BME280;49801;37.536;-122.304;2022-09-09T02:59:22;100253.09;;;26.29;41.08
63652;BME280;49801;37.536;-122.304;2022-09-09T02:59:50;100247.03;;;26.27;41.03
63652;BME280;49801;37.536;-122.304;2022-09-09T03:00:21;100249.78;;;26.27;41.15
63652;BME280;49801;37.536;-122.304;2022-09-09T03:00:48;100252.03;;;26.25;41.11
63652;BME280;49801;37.536;-122.304;2022-09-09T03:01:14;100257.63;;;26.20;41.15
63652;BME280;49801;37.536;-122.304;2022-09-09T03:01:40;100248.72;;;26.18;41.09
63652;BME280;49801;37.536;-122.304;2022-09-09T03:02:06;100249.88;;;26.17;41.13
63652;BME280;49801;37.536;-122.304;2022-09-09T03:02:32;100248.19;;;26.16;41.31
63652;BME280;49801;37.536;-122.304;2022-09-09T03:02:58;100249.03;;;26.16;41.40
63652;BME280;49801;37.536;-122.304;2022-09-09T03:03:24;100249.63;;;26.13;41.47
63652;BME280;49801;37.536;-122.304;2022-09-09T03:03:49;100243.88;;;26.05;41.74
63652;BME280;49801;37.536;-122.304;2022-09-09T03:04:15;100246.34;;;26.01;41.83
63652;BME280;49801;37.536;-122.304;2022-09-09T03:04:41;100245.53;;;26.00;41.78
63652;BME280;49801;37.536;-122.304;2022-09-09T03:05:09;100253.31;;;25.98;41.70
63652;BME280;49801;37.536;-122.304;2022-09-09T03:05:35;100246.72;;;25.94;41.87
63652;BME280;49801;37.536;-122.304;2022-09-09T03:06:01;100246.72;;;25.94;41.79
63652;BME280;49801;37.536;-122.304;2022-09-09T03:06:27;100245.00;;;25.93;41.90
63652;BME280;49801;37.536;-122.304;2022-09-09T03:06:53;100247.53;;;25.95;41.86
63652;BME280;49801;37.536;-122.304;2022-09-09T03:07:19;100251.94;;;25.96;41.57
63652;BME280;49801;37.536;-122.304;2022-09-09T03:07:45;100247.53;;;25.95;41.63
63652;BME280;49801;37.536;-122.304;2022-09-09T03:08:10;100251.38;;;25.94;41.81
63652;BME280;49801;37.536;-122.304;2022-09-09T03:08:36;100249.72;;;25.93;41.68
63652;BME280;49801;37.536;-122.304;2022-09-09T03:09:02;100258.34;;;25.91;41.86
63652;BME280;49801;37.536;-122.304;2022-09-09T03:09:28;100246.13;;;25.87;41.89
63652;BME280;49801;37.536;-122.304;2022-09-09T03:09:54;100247.00;;;25.88;41.87